Time;durP1;ratioP1;P1;durP2;ratioP2;P2;SDS_P1;SDS_P2;PMS_P1;PMS_P2;Temp;Humidity;BMP_temperature;BMP_pressure;BME280_temperature;BME280_humidity;BME280_pressure;Samples;Min_cycle;Max_cycle;Signal;HPM_P1;HPM_P2
2022/03/05 00:00:30;;;;;;;31.63;8.87;;;0.30;99.90;;;;;;5017739;28;20179;-84
2022/03/05 00:02:59;;;;;;;23.77;8.70;;;0.20;99.90;;;;;;5017461;28;20205;-84
2022/03/05 00:05:26;;;;;;;20.70;8.33;;;0.30;99.90;;;;;;5018133;28;20598;-83
2022/03/05 00:07:52;;;;;;;28.00;8.50;;;0.20;99.90;;;;;;5018254;28;20772;-83
2022/03/05 00:10:19;;;;;;;27.90;8.47;;;0.20;99.90;;;;;;5018969;28;20176;-82
2022/03/05 00:12:45;;;;;;;23.07;7.80;;;0.20;99.90;;;;;;5017993;28;20179;-82
2022/03/05 00:15:11;;;;;;;19.20;7.63;;;0.10;99.90;;;;;;5018007;28;20266;-82
2022/03/05 00:17:37;;;;;;;21.47;8.07;;;0.10;99.90;;;;;;5017949;28;20573;-81
2022/03/05 00:20:05;;;;;;;27.57;8.43;;;0.10;99.90;;;;;;5018013;28;20173;-81
2022/03/05 00:22:30;;;;;;;26.53;8.10;;;0.10;99.90;;;;;;5017603;28;20209;-81
2022/03/05 00:24:56;;;;;;;20.63;7.63;;;0.00;99.90;;;;;;5017242;28;20191;-81
2022/03/05 00:27:22;;;;;;;21.53;7.13;;;0.00;99.90;;;;;;5018186;28;20199;-81
2022/03/05 00:29:47;;;;;;;24.37;8.43;;;0.00;99.90;;;;;;5017651;28;20648;-80
2022/03/05 00:32:13;;;;;;;23.13;7.80;;;-0.10;99.90;;;;;;5017087;28;20184;-80
2022/03/05 00:34:39;;;;;;;25.43;7.70;;;-0.10;99.90;;;;;;5017692;28;20178;-80
2022/03/05 00:37:05;;;;;;;25.83;8.47;;;0.00;99.90;;;;;;5018516;28;20630;-79
2022/03/05 00:39:31;;;;;;;19.97;7.13;;;-0.10;99.90;;;;;;5017362;28;20185;-79
2022/03/05 00:41:57;;;;;;;28.80;8.57;;;-0.20;99.90;;;;;;5016132;28;20214;-79
2022/03/05 00:44:23;;;;;;;26.47;9.10;;;-0.20;99.90;;;;;;5015857;28;20635;-79
2022/03/05 00:46:48;;;;;;;20.90;7.93;;;-0.20;99.90;;;;;;5015349;28;20185;-79
2022/03/05 00:49:14;;;;;;;29.37;8.33;;;-0.20;99.90;;;;;;5015196;28;20222;-79
2022/03/05 00:51:40;;;;;;;23.50;7.90;;;-0.20;99.90;;;;;;5015418;28;20182;-79
2022/03/05 00:54:06;;;;;;;25.37;8.40;;;-0.20;99.90;;;;;;5013928;28;20179;-78
2022/03/05 00:56:31;;;;;;;26.77;7.83;;;-0.30;99.90;;;;;;5015092;28;20197;-78
2022/03/05 00:58:57;;;;;;;27.17;8.57;;;-0.30;99.90;;;;;;5015958;28;20202;-78
2022/03/05 01:01:23;;;;;;;29.63;8.70;;;-0.30;99.90;;;;;;5015153;28;20263;-79
2022/03/05 01:03:49;;;;;;;25.43;7.70;;;-0.30;99.90;;;;;;5015674;28;20198;-79
2022/03/05 01:06:14;;;;;;;22.30;8.30;;;-0.40;99.90;;;;;;5016145;28;20265;-79
2022/03/05 01:08:40;;;;;;;26.37;7.97;;;-0.40;99.90;;;;;;5016142;28;20543;-78
2022/03/05 01:11:07;;;;;;;26.60;7.80;;;-0.40;99.90;;;;;;5016583;28;20217;-78
2022/03/05 01:13:32;;;;;;;24.07;8.77;;;-0.40;99.90;;;;;;5016893;28;20185;-79
2022/03/05 01:15:58;;;;;;;17.70;7.00;;;-0.40;99.90;;;;;;5016441;28;20542;-79
2022/03/05 01:18:23;;;;;;;29.37;8.13;;;-0.40;99.90;;;;;;5015793;28;20202;-80
2022/03/05 01:20:49;;;;;;;23.33;8.10;;;-0.50;99.90;;;;;;5015177;28;20206;-79
2022/03/05 01:23:15;;;;;;;22.57;8.47;;;-0.50;99.90;;;;;;5015761;28;20175;-78
2022/03/05 01:25:40;;;;;;;31.97;8.87;;;-0.50;99.90;;;;;;5015001;28;20533;-79
2022/03/05 01:28:06;;;;;;;27.10;8.83;;;-0.50;99.90;;;;;;5015343;28;20201;-79
2022/03/05 01:30:33;;;;;;;22.37;7.47;;;-0.60;99.90;;;;;;5015714;28;20274;-79
2022/03/05 01:32:59;;;;;;;26.90;7.87;;;-0.60;99.90;;;;;;5015227;28;20666;-78
2022/03/05 01:35:25;;;;;;;25.13;8.00;;;-0.60;99.90;;;;;;5016478;28;20174;-78
2022/03/05 01:37:51;;;;;;;24.90;8.23;;;-0.50;99.90;;;;;;5015976;28;20573;-78
2022/03/05 01:40:17;;;;;;;28.87;8.50;;;-0.70;99.90;;;;;;5017579;28;20178;-79
2022/03/05 01:42:42;;;;;;;25.67;7.40;;;-0.60;99.90;;;;;;5016452;28;20202;-79
2022/03/05 01:45:11;;;;;;;27.43;8.47;;;-0.60;99.90;;;;;;5016517;28;20178;-78
2022/03/05 01:47:38;;;;;;;21.77;7.63;;;-0.70;99.90;;;;;;5017305;28;20191;-79
2022/03/05 01:50:04;;;;;;;28.00;8.97;;;-0.70;99.90;;;;;;5017865;28;20269;-79
2022/03/05 01:52:30;;;;;;;26.37;8.40;;;-0.70;99.90;;;;;;5017896;28;20627;-79
2022/03/05 01:54:56;;;;;;;23.77;7.10;;;-0.70;99.90;;;;;;5017046;28;20250;-79
2022/03/05 01:57:22;;;;;;;23.40;8.63;;;-0.70;99.90;;;;;;5017078;28;20217;-79
2022/03/05 01:59:48;;;;;;;30.53;8.33;;;-0.80;99.90;;;;;;5016590;28;20616;-79
2022/03/05 02:02:14;;;;;;;26.47;8.53;;;-0.70;99.90;;;;;;5015774;28;20207;-80
2022/03/05 02:04:40;;;;;;;24.33;7.53;;;-0.80;99.90;;;;;;5014864;28;20663;-80
2022/03/05 02:07:06;;;;;;;24.07;8.27;;;-0.80;99.90;;;;;;5015302;28;20175;-80
2022/03/05 02:09:31;;;;;;;23.47;8.23;;;-0.80;99.90;;;;;;5015756;28;20178;-79
2022/03/05 02:11:57;;;;;;;28.23;8.67;;;-0.90;99.90;;;;;;5015493;28;20212;-80
2022/03/05 02:14:23;;;;;;;20.17;8.73;;;-0.90;99.90;;;;;;5016358;28;20239;-78
2022/03/05 02:16:49;;;;;;;33.33;9.00;;;-0.90;99.90;;;;;;5017355;28;20614;-78
2022/03/05 02:19:14;;;;;;;27.57;8.97;;;-0.80;99.90;;;;;;5017214;28;20194;-79
2022/03/05 02:21:40;;;;;;;33.80;8.80;;;-0.90;99.90;;;;;;5016891;28;20620;-79
2022/03/05 02:24:06;;;;;;;25.77;7.90;;;-0.90;99.90;;;;;;5017782;28;20555;-79
2022/03/05 02:26:31;;;;;;;33.77;8.87;;;-0.80;99.90;;;;;;5017860;28;20179;-79
2022/03/05 02:28:57;;;;;;;30.50;8.93;;;-0.80;99.90;;;;;;5017019;28;20199;-79
2022/03/05 02:31:23;;;;;;;30.50;9.13;;;-0.90;99.90;;;;;;5017113;28;20185;-78
2022/03/05 02:33:52;;;;;;;30.50;8.77;;;-0.90;99.90;;;;;;5017582;28;20182;-79
2022/03/05 02:36:20;;;;;;;30.10;9.83;;;-0.90;99.90;;;;;;5017255;28;20197;-80
2022/03/05 02:38:45;;;;;;;32.07;9.17;;;-1.00;99.90;;;;;;5016033;28;20210;-80
2022/03/05 02:41:11;;;;;;;31.80;9.33;;;-0.90;99.90;;;;;;5015969;28;20198;-79
2022/03/05 02:43:36;;;;;;;30.13;10.10;;;-0.90;99.90;;;;;;5017577;28;20185;-79
2022/03/05 02:46:02;;;;;;;29.83;9.13;;;-0.90;99.90;;;;;;5018100;28;20170;-79
2022/03/05 02:48:28;;;;;;;28.47;9.20;;;-0.90;99.90;;;;;;5017623;28;20218;-80
2022/03/05 02:50:54;;;;;;;31.17;8.70;;;-1.00;99.90;;;;;;5017891;28;20186;-80
2022/03/05 02:53:20;;;;;;;33.90;10.37;;;-0.90;99.90;;;;;;5018054;28;20187;-79
2022/03/05 02:55:46;;;;;;;35.07;9.83;;;-1.00;99.90;;;;;;5017577;28;20242;-80
2022/03/05 02:58:12;;;;;;;37.97;10.33;;;-1.10;99.90;;;;;;5024933;28;20205;-79
2022/03/05 03:00:38;;;;;;;28.80;9.50;;;-1.10;99.90;;;;;;5026153;28;20183;-79
2022/03/05 03:03:04;;;;;;;33.10;9.33;;;-1.10;99.90;;;;;;5017202;28;20587;-79
2022/03/05 03:05:29;;;;;;;31.70;9.87;;;-1.00;99.90;;;;;;5015201;28;20631;-79
2022/03/05 03:07:55;;;;;;;32.37;9.47;;;-1.00;99.90;;;;;;5015366;28;20198;-79
2022/03/05 03:10:21;;;;;;;30.60;9.50;;;-1.00;99.90;;;;;;5015199;28;20538;-79
2022/03/05 03:12:47;;;;;;;30.10;8.67;;;-1.00;99.90;;;;;;5015163;28;20670;-79
2022/03/05 03:15:15;;;;;;;41.33;10.20;;;-1.00;99.90;;;;;;5015554;28;20750;-78
2022/03/05 03:17:42;;;;;;;35.77;9.90;;;-1.00;99.90;;;;;;5015365;28;20195;-80
2022/03/05 03:20:13;;;;;;;32.13;9.10;;;-1.10;99.90;;;;;;5014785;28;20255;-80
2022/03/05 03:22:39;;;;;;;40.10;9.50;;;-1.00;99.90;;;;;;5015144;28;20752;-79
2022/03/05 03:25:06;;;;;;;31.80;9.53;;;-1.10;99.90;;;;;;5016775;28;20175;-80
2022/03/05 03:27:31;;;;;;;41.90;10.03;;;-1.00;99.90;;;;;;5015162;28;20240;-79
2022/03/05 03:29:57;;;;;;;37.23;10.23;;;-1.10;99.90;;;;;;5014124;28;20702;-80
2022/03/05 03:32:23;;;;;;;32.30;9.63;;;-1.10;99.90;;;;;;5014795;28;20183;-79
2022/03/05 03:34:48;;;;;;;36.30;10.10;;;-1.10;99.90;;;;;;5015900;28;20175;-79
2022/03/05 03:37:14;;;;;;;39.20;11.23;;;-1.10;99.90;;;;;;5016301;28;20185;-79
2022/03/05 03:39:40;;;;;;;39.37;10.17;;;-1.10;99.90;;;;;;5016121;28;20178;-79
2022/03/05 03:42:06;;;;;;;35.13;10.37;;;-1.10;99.90;;;;;;5017385;28;20611;-79
2022/03/05 03:44:31;;;;;;;35.07;10.17;;;-1.10;99.90;;;;;;5015769;28;20766;-79
2022/03/05 03:46:57;;;;;;;38.17;10.83;;;-1.20;99.90;;;;;;5015187;28;20190;-79
2022/03/05 03:49:23;;;;;;;39.13;10.27;;;-1.20;99.90;;;;;;5017154;28;20170;-79
2022/03/05 03:51:49;;;;;;;41.23;10.87;;;-1.20;99.90;;;;;;5015927;28;20179;-79
2022/03/05 03:54:15;;;;;;;34.90;10.63;;;-1.10;99.90;;;;;;5015890;28;20692;-79
2022/03/05 03:56:41;;;;;;;42.73;10.63;;;-1.10;99.90;;;;;;5015909;28;20202;-79
2022/03/05 03:59:07;;;;;;;37.60;10.90;;;-1.10;99.90;;;;;;5016333;28;20258;-79
2022/03/05 04:01:33;;;;;;;42.27;10.50;;;-1.20;99.90;;;;;;5015607;28;20211;-79
2022/03/05 04:03:59;;;;;;;40.83;10.57;;;-1.20;99.90;;;;;;5015085;28;20190;-79
2022/03/05 04:06:24;;;;;;;41.13;10.47;;;-1.20;99.90;;;;;;5015470;28;20248;-79
2022/03/05 04:08:50;;;;;;;41.57;10.33;;;-1.30;99.90;;;;;;5014139;28;20226;-79
2022/03/05 04:11:18;;;;;;;43.57;11.03;;;-1.30;99.90;;;;;;5014914;28;20210;-79
2022/03/05 04:13:45;;;;;;;41.73;10.30;;;-1.30;99.90;;;;;;5014732;28;20179;-79
2022/03/05 04:16:12;;;;;;;38.33;11.13;;;-1.40;99.90;;;;;;5013224;28;20183;-79
2022/03/05 04:18:38;;;;;;;37.10;10.77;;;-1.30;99.90;;;;;;5013088;28;20582;-79
2022/03/05 04:21:06;;;;;;;39.27;11.00;;;-1.30;99.90;;;;;;5012755;28;20209;-79
2022/03/05 04:23:32;;;;;;;42.83;10.57;;;-1.30;99.90;;;;;;5012822;28;20662;-79
2022/03/05 04:25:58;;;;;;;39.07;10.53;;;-1.30;99.90;;;;;;5014702;28;20244;-79
2022/03/05 04:28:24;;;;;;;30.43;10.30;;;-1.30;99.90;;;;;;5014675;28;20663;-79
2022/03/05 04:30:49;;;;;;;35.00;10.03;;;-1.30;99.90;;;;;;5014748;28;20228;-79
2022/03/05 04:33:15;;;;;;;38.90;10.83;;;-1.30;99.90;;;;;;5014146;28;20179;-79
2022/03/05 04:35:41;;;;;;;39.20;10.43;;;-1.40;99.90;;;;;;5014130;28;20175;-79
2022/03/05 04:38:07;;;;;;;43.13;10.90;;;-1.40;99.90;;;;;;5014171;28;20211;-79
2022/03/05 04:40:33;;;;;;;42.73;10.83;;;-1.30;99.90;;;;;;5014763;28;20182;-79
2022/03/05 04:42:59;;;;;;;45.80;11.23;;;-1.40;99.90;;;;;;5014312;28;20179;-79
2022/03/05 04:45:26;;;;;;;41.60;11.37;;;-1.40;99.90;;;;;;5014057;28;20636;-79
2022/03/05 04:47:52;;;;;;;43.90;11.67;;;-1.40;99.90;;;;;;5013492;28;20201;-79
2022/03/05 04:50:18;;;;;;;44.93;11.17;;;-1.40;99.90;;;;;;5014046;28;20273;-79
2022/03/05 04:52:44;;;;;;;42.90;11.77;;;-1.40;99.90;;;;;;5014230;28;20185;-79
2022/03/05 04:55:10;;;;;;;38.30;11.27;;;-1.40;99.90;;;;;;5014251;28;20182;-79
2022/03/05 04:57:36;;;;;;;40.97;11.83;;;-1.40;99.90;;;;;;5014063;28;20195;-79
2022/03/05 05:00:05;;;;;;;39.27;10.73;;;-1.40;99.90;;;;;;5014468;28;20178;-79
2022/03/05 05:02:31;;;;;;;36.60;11.27;;;-1.40;99.90;;;;;;5013673;28;20237;-79
2022/03/05 05:04:56;;;;;;;44.50;12.40;;;-1.50;99.90;;;;;;5014588;28;20217;-79
2022/03/05 05:07:22;;;;;;;41.47;11.60;;;-1.50;99.90;;;;;;5013941;28;20267;-79
2022/03/05 05:09:48;;;;;;;36.87;9.37;;;-1.50;99.90;;;;;;5014073;28;20675;-79
2022/03/05 05:12:13;;;;;;;42.53;10.77;;;-1.50;99.90;;;;;;5013897;28;20186;-79
2022/03/05 05:14:39;;;;;;;41.77;10.67;;;-1.50;99.90;;;;;;5014104;28;20269;-79
2022/03/05 05:17:05;;;;;;;46.27;11.50;;;-1.50;99.90;;;;;;5013880;28;20184;-79
2022/03/05 05:19:31;;;;;;;46.87;11.67;;;-1.50;99.90;;;;;;5014342;28;20179;-79
2022/03/05 05:22:01;;;;;;;41.70;12.37;;;-1.50;99.90;;;;;;5014277;28;20300;-79
2022/03/05 05:24:32;;;;;;;41.07;11.00;;;-1.50;99.90;;;;;;5013522;28;20174;-79
2022/03/05 05:26:57;;;;;;;40.33;12.10;;;-1.50;99.90;;;;;;5014438;28;20189;-79
2022/03/05 05:29:24;;;;;;;40.20;11.30;;;-1.50;99.90;;;;;;5015674;28;20280;-79
2022/03/05 05:31:50;;;;;;;43.70;11.17;;;-1.60;99.90;;;;;;5014054;28;20174;-79
2022/03/05 05:34:16;;;;;;;53.77;11.77;;;-1.60;99.90;;;;;;5016018;28;20183;-79
2022/03/05 05:36:42;;;;;;;46.80;12.13;;;-1.50;99.90;;;;;;5013956;28;20179;-79
2022/03/05 05:39:09;;;;;;;46.53;11.43;;;-1.50;99.90;;;;;;5013848;28;20209;-79
2022/03/05 05:41:36;;;;;;;44.33;12.13;;;-1.60;99.90;;;;;;5013841;28;20226;-79
2022/03/05 05:44:07;;;;;;;42.13;10.90;;;-1.60;99.90;;;;;;5014616;28;20232;-79
2022/03/05 05:46:33;;;;;;;46.53;11.63;;;-1.60;99.90;;;;;;5014391;28;20197;-79
2022/03/05 05:48:58;;;;;;;39.33;12.73;;;-1.60;99.90;;;;;;5013801;28;20195;-79
2022/03/05 05:51:26;;;;;;;49.80;12.80;;;-1.60;99.90;;;;;;5014580;28;20657;-79
2022/03/05 05:53:52;;;;;;;45.23;11.47;;;-1.70;99.90;;;;;;5014472;28;20218;-79
2022/03/05 05:56:18;;;;;;;43.23;11.77;;;-1.70;99.90;;;;;;5014502;28;20187;-79
2022/03/05 05:58:44;;;;;;;56.00;12.87;;;-1.70;99.90;;;;;;5014774;28;20206;-79
2022/03/05 06:01:10;;;;;;;52.97;12.87;;;-1.70;99.90;;;;;;5014608;28;20202;-79
2022/03/05 06:03:36;;;;;;;45.83;12.53;;;-1.70;99.90;;;;;;5014421;28;20229;-79
2022/03/05 06:06:02;;;;;;;49.10;12.50;;;-1.70;99.90;;;;;;5014315;28;20273;-79
2022/03/05 06:08:27;;;;;;;45.27;12.03;;;-1.70;99.90;;;;;;5015080;28;20210;-79
2022/03/05 06:10:54;;;;;;;50.27;12.80;;;-1.70;99.90;;;;;;5014774;28;20217;-79
2022/03/05 06:13:20;;;;;;;44.00;12.70;;;-1.70;99.90;;;;;;5014938;28;20216;-79
2022/03/05 06:15:46;;;;;;;49.30;11.97;;;-1.70;99.90;;;;;;5014677;28;20186;-79
2022/03/05 06:18:12;;;;;;;57.13;12.50;;;-1.70;99.90;;;;;;5014361;28;20206;-79
2022/03/05 06:20:38;;;;;;;55.90;12.53;;;-1.60;99.90;;;;;;5014703;28;20671;-79
2022/03/05 06:23:04;;;;;;;51.37;12.97;;;-1.60;99.90;;;;;;5014939;28;20175;-79
2022/03/05 06:25:30;;;;;;;46.17;11.40;;;-1.70;99.90;;;;;;5015376;28;20243;-79
2022/03/05 06:27:56;;;;;;;47.73;11.83;;;-1.50;99.90;;;;;;5015687;28;20721;-79
2022/03/05 06:30:22;;;;;;;53.33;13.63;;;-1.60;99.90;;;;;;5015783;28;20178;-79
2022/03/05 06:32:47;;;;;;;44.57;11.57;;;-1.50;99.90;;;;;;5019528;28;20186;-79
2022/03/05 06:35:13;;;;;;;44.77;12.57;;;-1.50;99.90;;;;;;5020881;28;20639;-79
2022/03/05 06:37:39;;;;;;;53.23;12.50;;;-1.40;99.90;;;;;;5026321;28;20198;-79
2022/03/05 06:40:05;;;;;;;46.20;12.10;;;-1.40;99.90;;;;;;5024306;28;20185;-79
2022/03/05 06:42:31;;;;;;;50.80;13.10;;;-1.30;99.90;;;;;;5017747;28;20272;-79
2022/03/05 06:44:57;;;;;;;43.67;13.13;;;-1.30;99.90;;;;;;5018524;28;20215;-79
2022/03/05 06:47:23;;;;;;;46.67;13.07;;;-1.20;99.90;;;;;;5017744;28;20544;-79
2022/03/05 06:49:48;;;;;;;49.30;12.83;;;-1.10;99.90;;;;;;5017380;28;20181;-79
2022/03/05 06:52:15;;;;;;;45.20;12.53;;;-0.90;99.90;;;;;;5017450;28;20190;-79
2022/03/05 06:54:41;;;;;;;48.57;12.73;;;-0.80;99.90;;;;;;5018269;28;20650;-79
2022/03/05 06:57:07;;;;;;;45.70;12.07;;;-0.70;99.90;;;;;;5018852;28;20186;-79
2022/03/05 06:59:34;;;;;;;47.80;13.60;;;-0.70;99.90;;;;;;5018870;28;20538;-79
2022/03/05 07:01:59;;;;;;;48.80;12.17;;;-0.50;99.90;;;;;;5016249;28;20221;-79
2022/03/05 07:04:25;;;;;;;43.33;12.43;;;-0.50;99.90;;;;;;5016574;28;20655;-78
2022/03/05 07:06:51;;;;;;;47.97;12.93;;;-0.40;99.90;;;;;;5018324;28;20174;-81
2022/03/05 07:09:17;;;;;;;46.40;13.37;;;-0.20;99.90;;;;;;5020430;28;20210;-80
2022/03/05 07:11:42;;;;;;;43.23;12.57;;;0.20;99.90;;;;;;5021470;28;20190;-81
2022/03/05 07:14:08;;;;;;;42.30;12.83;;;0.50;99.90;;;;;;5020226;28;20186;-79
2022/03/05 07:16:34;;;;;;;48.77;13.73;;;0.70;99.90;;;;;;5017775;28;20221;-80
2022/03/05 07:19:00;;;;;;;37.07;12.20;;;0.80;99.90;;;;;;5021293;28;20200;-79
2022/03/05 07:21:26;;;;;;;45.23;13.53;;;1.00;99.90;;;;;;5017393;28;20635;-80
2022/03/05 07:23:51;;;;;;;41.90;12.90;;;1.30;99.90;;;;;;5016484;28;20641;-79
2022/03/05 07:26:18;;;;;;;41.80;14.63;;;2.10;99.90;;;;;;5017403;28;20239;-78
2022/03/05 07:28:47;;;;;;;38.30;12.43;;;3.00;99.90;;;;;;5017781;28;20205;-78
2022/03/05 07:31:12;;;;;;;47.43;12.97;;;3.40;99.90;;;;;;5019477;28;20178;-79
2022/03/05 07:33:38;;;;;;;39.57;13.93;;;4.10;97.40;;;;;;5020867;28;20179;-79
2022/03/05 07:36:04;;;;;;;39.40;13.43;;;4.30;96.40;;;;;;5021371;28;20640;-79
2022/03/05 07:38:31;;;;;;;38.20;13.87;;;4.10;97.20;;;;;;5021891;28;20224;-80
2022/03/05 07:40:57;;;;;;;41.17;13.97;;;3.40;97.70;;;;;;5024811;28;20283;-80
2022/03/05 07:43:26;;;;;;;35.77;13.07;;;3.40;98.00;;;;;;5024532;28;20178;-80
2022/03/05 07:45:52;;;;;;;36.73;13.20;;;4.60;95.60;;;;;;5023597;28;20206;-81
2022/03/05 07:48:19;;;;;;;37.13;13.83;;;4.90;94.20;;;;;;5022441;28;20208;-81
2022/03/05 07:50:46;;;;;;;33.43;13.70;;;5.50;93.90;;;;;;5022662;28;20173;-81
2022/03/05 07:53:13;;;;;;;34.97;14.07;;;5.20;93.60;;;;;;5021954;28;20175;-82
2022/03/05 07:55:39;;;;;;;34.10;14.60;;;5.80;92.30;;;;;;5021860;28;20179;-83
2022/03/05 07:58:04;;;;;;;36.47;14.63;;;6.70;91.40;;;;;;5020726;28;20205;-82
2022/03/05 08:00:30;;;;;;;39.20;15.50;;;7.20;90.00;;;;;;5018494;28;20171;-83
2022/03/05 08:02:56;;;;;;;36.77;14.03;;;6.60;91.60;;;;;;5018569;28;20281;-83
2022/03/05 08:05:21;;;;;;;30.23;12.80;;;5.70;92.50;;;;;;5019097;28;20195;-83
2022/03/05 08:07:48;;;;;;;33.93;13.67;;;6.30;89.90;;;;;;5018675;28;20209;-83
2022/03/05 08:10:14;;;;;;;36.77;14.63;;;6.20;90.80;;;;;;5018507;28;20542;-83
2022/03/05 08:12:39;;;;;;;40.97;15.27;;;6.40;91.30;;;;;;5019891;28;20183;-83
2022/03/05 08:15:06;;;;;;;34.73;14.40;;;5.10;92.80;;;;;;5019735;28;20191;-83
2022/03/05 08:17:32;;;;;;;34.90;15.90;;;4.90;95.00;;;;;;5019868;28;20201;-83
2022/03/05 08:19:58;;;;;;;36.93;14.17;;;5.10;94.20;;;;;;5020039;28;20644;-82
2022/03/05 08:22:23;;;;;;;35.50;15.13;;;4.70;94.80;;;;;;5020497;28;20294;-82
2022/03/05 08:24:50;;;;;;;40.20;15.73;;;5.20;94.40;;;;;;5019034;28;20185;-82
2022/03/05 08:27:15;;;;;;;35.47;15.63;;;5.80;92.90;;;;;;5020365;28;20175;-82
2022/03/05 08:29:42;;;;;;;41.80;15.43;;;6.00;91.80;;;;;;5020471;28;20175;-82
2022/03/05 08:32:08;;;;;;;35.93;14.93;;;5.30;92.90;;;;;;5020718;28;20180;-83
2022/03/05 08:34:34;;;;;;;38.30;15.33;;;6.50;92.20;;;;;;5020033;28;20191;-82
2022/03/05 08:37:00;;;;;;;39.37;14.83;;;6.40;90.70;;;;;;5020293;28;20192;-82
2022/03/05 08:39:27;;;;;;;36.23;14.43;;;6.30;91.50;;;;;;5021343;28;20187;-82
2022/03/05 08:41:53;;;;;;;35.10;15.33;;;6.10;92.40;;;;;;5021285;28;20221;-82
2022/03/05 08:44:19;;;;;;;34.37;14.83;;;5.40;93.70;;;;;;5022602;28;20590;-82
2022/03/05 08:46:45;;;;;;;38.97;16.23;;;5.60;93.80;;;;;;5020621;28;20174;-82
2022/03/05 08:49:10;;;;;;;35.60;15.00;;;6.10;93.80;;;;;;5017468;28;20216;-82
2022/03/05 08:51:38;;;;;;;34.03;14.97;;;6.00;91.80;;;;;;5017316;28;20178;-82
2022/03/05 08:54:04;;;;;;;36.57;14.80;;;6.20;93.00;;;;;;5015802;28;20174;-82
2022/03/05 08:56:29;;;;;;;37.43;15.70;;;6.10;92.30;;;;;;5016317;28;20182;-82
2022/03/05 08:58:55;;;;;;;38.10;14.80;;;5.40;93.30;;;;;;5017201;28;20259;-82
2022/03/05 09:01:21;;;;;;;37.20;15.97;;;6.30;92.60;;;;;;5016328;28;20205;-82
2022/03/05 09:03:46;;;;;;;35.03;15.60;;;6.10;92.20;;;;;;5015389;28;20185;-81
2022/03/05 09:06:12;;;;;;;36.60;14.90;;;5.80;91.90;;;;;;5015862;28;20180;-82
2022/03/05 09:08:38;;;;;;;37.77;15.13;;;5.60;92.10;;;;;;5015692;28;20209;-81
2022/03/05 09:11:05;;;;;;;36.80;15.57;;;5.70;93.70;;;;;;5015048;28;20191;-81
2022/03/05 09:13:30;;;;;;;35.57;14.73;;;5.90;91.40;;;;;;5015224;28;20180;-81
2022/03/05 09:15:56;;;;;;;40.33;15.77;;;6.40;92.80;;;;;;5015236;28;20530;-81
2022/03/05 09:18:22;;;;;;;39.83;15.20;;;6.90;91.10;;;;;;5014810;28;20201;-81
2022/03/05 09:20:48;;;;;;;36.23;14.77;;;6.00;92.30;;;;;;5015702;28;20189;-81
2022/03/05 09:23:15;;;;;;;42.40;14.60;;;6.10;92.30;;;;;;5015731;28;20635;-81
2022/03/05 09:25:41;;;;;;;38.97;14.20;;;6.60;91.60;;;;;;5017628;28;20176;-81
2022/03/05 09:28:07;;;;;;;34.73;13.40;;;6.40;92.20;;;;;;5017677;28;20201;-82
2022/03/05 09:30:33;;;;;;;38.17;14.27;;;7.00;91.20;;;;;;5017231;28;20184;-81
2022/03/05 09:32:58;;;;;;;34.40;13.57;;;6.40;90.80;;;;;;5017284;28;20502;-81
2022/03/05 09:35:24;;;;;;;39.93;13.17;;;7.00;91.30;;;;;;5017457;28;20220;-81
2022/03/05 09:37:50;;;;;;;34.73;13.73;;;7.50;91.20;;;;;;5016628;28;20210;-81
2022/03/05 09:40:16;;;;;;;37.23;14.97;;;7.10;91.10;;;;;;5018277;28;20174;-81
2022/03/05 09:42:43;;;;;;;43.40;14.90;;;7.40;90.90;;;;;;5016869;28;20213;-81
2022/03/05 09:45:10;;;;;;;38.43;14.07;;;7.30;91.00;;;;;;5016804;28;20546;-81
2022/03/05 09:47:41;;;;;;;37.27;13.20;;;7.30;90.20;;;;;;5017804;28;20179;-81
2022/03/05 09:50:08;;;;;;;42.63;14.03;;;7.40;90.50;;;;;;5016970;28;20175;-81
2022/03/05 09:52:34;;;;;;;37.33;14.13;;;7.40;88.70;;;;;;5017117;28;20269;-81
2022/03/05 09:55:01;;;;;;;36.17;12.87;;;7.40;90.90;;;;;;5017954;28;20209;-81
2022/03/05 09:57:27;;;;;;;37.77;13.90;;;7.40;90.70;;;;;;5018219;28;20202;-81
2022/03/05 09:59:53;;;;;;;43.20;15.23;;;7.60;88.80;;;;;;5017521;28;20674;-81
2022/03/05 10:02:19;;;;;;;37.67;14.17;;;7.70;89.40;;;;;;5017614;28;20213;-81
2022/03/05 10:04:44;;;;;;;38.57;14.70;;;7.90;88.70;;;;;;5016812;28;20195;-81
2022/03/05 10:07:10;;;;;;;38.30;13.80;;;7.60;89.20;;;;;;5016789;28;20173;-81
2022/03/05 10:09:38;;;;;;;36.87;14.87;;;7.70;90.50;;;;;;5017806;28;20202;-81
2022/03/05 10:12:23;;;;;;;34.90;14.37;;;8.00;87.50;;;;;;5017383;28;20210;-81
2022/03/05 10:15:12;;;;;;;36.97;13.90;;;8.00;88.00;;;;;;5017321;28;20179;-81
2022/03/05 10:17:57;;;;;;;32.77;13.60;;;7.60;88.80;;;;;;5016789;28;20193;-80
2022/03/05 10:20:27;;;;;;;41.67;14.50;;;7.20;88.20;;;;;;5017329;28;20263;-80
2022/03/05 10:23:03;;;;;;;33.43;13.30;;;7.60;88.70;;;;;;5018384;28;20206;-81
2022/03/05 10:25:32;;;;;;;39.20;14.60;;;7.80;90.10;;;;;;5014517;28;20174;-81
2022/03/05 10:28:02;;;;;;;36.27;13.23;;;7.70;90.20;;;;;;5015668;28;20265;-81
2022/03/05 10:30:30;;;;;;;38.53;14.77;;;7.80;89.20;;;;;;5015523;28;20184;-80
2022/03/05 10:32:55;;;;;;;34.73;12.70;;;8.00;89.00;;;;;;5015508;28;20181;-81
2022/03/05 10:35:21;;;;;;;34.57;14.60;;;8.00;89.00;;;;;;5015480;28;20184;-81
2022/03/05 10:37:53;;;;;;;36.53;13.97;;;7.80;86.90;;;;;;5016534;28;20190;-81
2022/03/05 10:40:26;;;;;;;34.53;13.63;;;7.60;87.70;;;;;;5015047;28;20194;-81
2022/03/05 10:42:52;;;;;;;38.67;14.73;;;7.40;88.30;;;;;;5016291;28;20213;-81
2022/03/05 10:45:18;;;;;;;36.40;14.13;;;7.10;88.50;;;;;;5015747;28;20173;-81
2022/03/05 10:47:47;;;;;;;37.43;13.97;;;7.50;89.10;;;;;;5013868;28;20191;-81
2022/03/05 10:50:19;;;;;;;34.40;13.37;;;7.30;87.00;;;;;;5013697;28;20257;-81
2022/03/05 10:52:50;;;;;;;38.43;13.97;;;7.70;88.60;;;;;;5013815;28;20171;-81
2022/03/05 10:55:24;;;;;;;35.63;13.30;;;8.10;88.40;;;;;;5013614;28;20183;-81
2022/03/05 10:58:17;;;;;;;37.73;14.20;;;7.70;88.20;;;;;;5014487;28;20201;-81
2022/03/05 11:00:45;;;;;;;39.43;15.73;;;7.90;86.40;;;;;;5013585;28;20183;-81
2022/03/05 11:03:11;;;;;;;35.20;14.27;;;8.30;88.40;;;;;;5013028;28;20196;-80
2022/03/05 11:05:38;;;;;;;33.93;14.17;;;8.50;86.70;;;;;;5013434;28;20627;-81
2022/03/05 11:08:05;;;;;;;38.97;13.77;;;8.50;89.10;;;;;;5013818;28;20258;-80
2022/03/05 11:10:31;;;;;;;34.60;13.20;;;8.40;87.20;;;;;;5014191;28;20174;-80
2022/03/05 11:12:59;;;;;;;37.73;13.97;;;8.70;86.20;;;;;;5021486;28;20180;-80
2022/03/05 11:15:27;;;;;;;39.17;14.83;;;8.70;85.60;;;;;;5019155;28;20178;-81
2022/03/05 11:17:53;;;;;;;32.77;13.50;;;8.40;85.60;;;;;;5024696;28;20263;-80
2022/03/05 11:20:19;;;;;;;38.57;14.57;;;8.40;85.50;;;;;;5026300;28;20192;-79
2022/03/05 11:22:49;;;;;;;37.70;14.03;;;8.00;86.80;;;;;;5024124;28;20215;-80
2022/03/05 11:25:21;;;;;;;38.50;13.90;;;8.30;85.30;;;;;;5022235;28;20648;-80
2022/03/05 11:27:56;;;;;;;37.87;14.43;;;8.20;85.10;;;;;;5022803;28;20198;-80
2022/03/05 11:30:22;;;;;;;32.50;13.97;;;8.40;85.20;;;;;;5020402;28;20627;-80
2022/03/05 11:32:48;;;;;;;36.20;14.33;;;8.00;85.60;;;;;;5019894;28;20236;-80
2022/03/05 11:35:28;;;;;;;37.00;14.83;;;8.10;86.10;;;;;;5022275;28;20178;-80
2022/03/05 11:37:53;;;;;;;36.90;14.07;;;8.40;85.00;;;;;;5022640;28;20195;-80
2022/03/05 11:40:41;;;;;;;32.97;13.90;;;8.70;85.10;;;;;;5025856;28;20190;-80
2022/03/05 11:43:23;;;;;;;36.40;14.73;;;8.60;84.40;;;;;;5027785;28;20662;-79
2022/03/05 11:45:58;;;;;;;36.23;14.70;;;8.80;86.70;;;;;;5025911;28;20187;-81
2022/03/05 11:48:25;;;;;;;41.50;14.50;;;8.80;84.60;;;;;;5022447;28;20191;-78
2022/03/05 11:50:52;;;;;;;36.80;14.53;;;8.70;84.20;;;;;;5021919;28;20170;-79
2022/03/05 11:53:18;;;;;;;39.53;14.33;;;9.20;83.10;;;;;;5021535;28;20220;-82
2022/03/05 11:55:45;;;;;;;36.33;14.57;;;9.20;81.80;;;;;;5021790;28;20554;-83
2022/03/05 11:58:14;;;;;;;37.20;14.77;;;9.30;82.30;;;;;;5020209;28;20203;-80
2022/03/05 12:00:49;;;;;;;37.10;15.17;;;9.30;83.60;;;;;;5019144;28;20194;-82
2022/03/05 12:03:45;;;;;;;34.27;14.20;;;9.40;84.10;;;;;;5017803;28;20272;-81
2022/03/05 12:06:13;;;;;;;37.33;14.93;;;9.20;81.60;;;;;;5017992;28;20176;-81
2022/03/05 12:08:38;;;;;;;37.53;14.57;;;9.30;81.10;;;;;;5017355;28;20212;-82
2022/03/05 12:11:15;;;;;;;39.47;16.43;;;9.10;84.50;;;;;;5017357;28;20178;-81
2022/03/05 12:13:46;;;;;;;38.27;15.53;;;9.10;82.40;;;;;;5018028;28;20187;-82
2022/03/05 12:16:14;;;;;;;35.90;13.33;;;9.40;83.20;;;;;;5018017;28;20178;-82
2022/03/05 12:18:41;;;;;;;33.33;14.17;;;9.10;82.50;;;;;;5016649;28;20710;-81
2022/03/05 12:21:07;;;;;;;34.77;13.27;;;9.10;80.80;;;;;;5014594;28;20205;-81
2022/03/05 12:23:33;;;;;;;39.73;15.03;;;9.90;80.90;;;;;;5014962;28;20177;-82
2022/03/05 12:26:04;;;;;;;36.90;14.90;;;10.90;79.40;;;;;;5013307;28;20736;-81
2022/03/05 12:28:40;;;;;;;33.33;14.57;;;11.10;76.80;;;;;;5013231;28;20287;-82
2022/03/05 12:31:11;;;;;;;38.33;14.57;;;10.60;77.20;;;;;;5013174;28;20168;-82